Terminal Aerodrome Forecast
Issued by NWS

Home | Current Version | Previous Version | Text Only | Print | Product List | Glossary On
Versions: 1 2 3 4 5 6 7 8 9 10 11 12 13 14 15 16
910
FTUS41 KPBZ 231127
TAFDUJ
TAF
KDUJ 231127Z 2312/2412 20005KT P6SM BKN008
     FM231700 22010KT P6SM BKN015
     FM232100 23008KT P6SM VCSH BKN025
     FM240100 15005KT P6SM VCSH BKN008=

USA.gov is the U.S. government's official web portal to all federal, state and local government web resources and services.